Time;durP1;ratioP1;P1;durP2;ratioP2;P2;SDS_P1;SDS_P2;PMS_P1;PMS_P2;Temp;Humidity;BMP_temperature;BMP_pressure;BME280_temperature;BME280_humidity;BME280_pressure;Samples;Min_cycle;Max_cycle;Signal;HPM_P1;HPM_P2
2022/06/29 00:00:43;;;;;;;1.67;1.02;;;23.40;93.20;;;;;;10137809;28;20044;-61
2022/06/29 00:05:34;;;;;;;2.55;1.35;;;23.40;93.40;;;;;;10129166;28;20037;-59
2022/06/29 00:10:25;;;;;;;2.15;1.25;;;23.40;93.40;;;;;;10137852;28;20071;-59
2022/06/29 00:15:17;;;;;;;2.15;1.65;;;23.30;93.50;;;;;;10137393;28;20032;-60
2022/06/29 00:20:12;;;;;;;2.15;1.42;;;23.40;93.60;;;;;;10137206;28;20032;-57
2022/06/29 00:25:03;;;;;;;1.90;1.48;;;23.40;93.60;;;;;;10136991;28;20100;-57
2022/06/29 00:29:54;;;;;;;3.03;1.38;;;23.40;93.70;;;;;;10128195;28;20041;-60
2022/06/29 00:34:45;;;;;;;2.88;1.48;;;23.40;93.70;;;;;;10129239;28;20460;-58
2022/06/29 00:39:36;;;;;;;2.70;1.17;;;23.20;94.20;;;;;;10142248;28;20037;-59
2022/06/29 00:44:27;;;;;;;2.85;1.42;;;23.30;94.00;;;;;;10137451;28;20025;-58
2022/06/29 00:49:19;;;;;;;3.67;1.45;;;23.30;94.00;;;;;;10136977;28;20048;-62
2022/06/29 00:54:13;;;;;;;4.30;1.67;;;23.10;94.10;;;;;;10126067;28;20020;-57
2022/06/29 00:59:05;;;;;;;1.60;1.43;;;23.10;94.30;;;;;;10134684;28;20063;-57
2022/06/29 01:03:56;;;;;;;1.38;1.27;;;23.10;94.40;;;;;;10135081;28;20432;-57
2022/06/29 01:08:46;;;;;;;7.35;1.73;;;23.10;94.40;;;;;;10100744;28;20043;-57
2022/06/29 01:13:42;;;;;;;3.17;1.48;;;23.00;94.50;;;;;;10117140;28;20029;-59
2022/06/29 01:18:32;;;;;;;3.55;1.33;;;23.10;94.50;;;;;;10134517;28;20437;-57
2022/06/29 01:23:23;;;;;;;2.53;1.33;;;23.00;94.60;;;;;;10134578;28;20040;-59
2022/06/29 01:28:14;;;;;;;4.22;1.35;;;23.00;94.60;;;;;;10124875;28;20021;-57
2022/06/29 01:33:04;;;;;;;1.90;1.25;;;23.00;94.70;;;;;;10134614;28;20321;-57
2022/06/29 01:37:55;;;;;;;3.05;1.17;;;22.90;94.70;;;;;;10134134;28;20238;-57
2022/06/29 01:42:46;;;;;;;1.42;1.10;;;22.90;94.80;;;;;;10133442;28;20238;-58
2022/06/29 01:47:36;;;;;;;2.92;0.93;;;22.70;94.80;;;;;;10133950;28;20138;-58
2022/06/29 01:52:27;;;;;;;1.13;1.02;;;22.70;95.00;;;;;;10115714;28;20797;-58
2022/06/29 01:57:17;;;;;;;2.97;1.33;;;22.70;95.00;;;;;;10134044;28;20024;-57
2022/06/29 02:02:08;;;;;;;1.23;1.00;;;22.60;95.00;;;;;;10132650;28;20043;-58
2022/06/29 02:06:59;;;;;;;1.42;1.30;;;22.60;95.20;;;;;;10115687;28;20117;-58
2022/06/29 02:11:50;;;;;;;1.52;1.00;;;22.50;95.20;;;;;;10131888;28;20044;-57
2022/06/29 02:16:41;;;;;;;4.55;1.42;;;22.50;95.30;;;;;;10134347;28;20023;-58
2022/06/29 02:21:31;;;;;;;3.88;1.10;;;22.40;95.40;;;;;;10132814;28;20040;-58
2022/06/29 02:26:22;;;;;;;1.95;1.27;;;22.50;95.70;;;;;;10114590;28;20476;-58
2022/06/29 02:36:22;;;;;;;3.45;1.58;;;22.40;95.50;;;;;;10134220;28;20077;-59
2022/06/29 02:41:12;;;;;;;4.18;1.55;;;22.30;95.60;;;;;;10132228;28;20070;-57
2022/06/29 02:46:03;;;;;;;2.47;1.42;;;22.20;95.80;;;;;;10132414;28;20060;-59
2022/06/29 02:50:54;;;;;;;2.08;1.63;;;22.20;96.00;;;;;;10132334;28;20036;-57
2022/06/29 02:55:45;;;;;;;2.13;1.30;;;22.10;96.20;;;;;;10132078;28;20044;-58
2022/06/29 03:00:35;;;;;;;4.22;1.88;;;22.10;96.30;;;;;;10132045;28;20040;-58
2022/06/29 03:05:26;;;;;;;3.63;1.90;;;22.00;96.50;;;;;;10122236;28;20025;-60
2022/06/29 03:10:17;;;;;;;3.58;1.70;;;22.00;96.80;;;;;;10129629;28;20619;-57
2022/06/29 03:15:08;;;;;;;2.25;1.58;;;21.80;97.10;;;;;;10131065;28;20029;-58
2022/06/29 03:20:01;;;;;;;2.38;1.95;;;21.80;97.30;;;;;;10128934;28;20445;-57
2022/06/29 03:24:52;;;;;;;4.03;1.73;;;21.80;97.60;;;;;;10140174;28;20688;-58
2022/06/29 03:29:43;;;;;;;3.22;2.38;;;21.70;97.90;;;;;;10129886;28;20060;-60
2022/06/29 03:34:34;;;;;;;4.22;2.75;;;21.70;98.10;;;;;;10138747;28;20240;-59
2022/06/29 03:39:24;;;;;;;4.30;2.75;;;21.70;98.40;;;;;;10109745;28;20028;-57
2022/06/29 03:44:15;;;;;;;4.28;2.53;;;21.60;98.90;;;;;;10138932;28;20028;-57
2022/06/29 03:49:06;;;;;;;2.65;2.20;;;21.50;98.90;;;;;;10139449;28;20491;-59
2022/06/29 03:53:56;;;;;;;4.95;2.22;;;21.40;99.10;;;;;;10139003;28;20077;-59
2022/06/29 03:58:47;;;;;;;5.13;2.72;;;21.40;99.30;;;;;;10138831;28;20032;-58
2022/06/29 04:03:38;;;;;;;3.00;2.55;;;21.30;99.60;;;;;;10138610;28;20033;-58
2022/06/29 04:08:28;;;;;;;2.63;2.38;;;21.30;99.70;;;;;;10136312;28;20058;-57
2022/06/29 04:13:19;;;;;;;3.40;2.30;;;21.20;99.90;;;;;;10138103;28;20036;-58
2022/06/29 04:18:09;;;;;;;5.10;2.83;;;21.20;99.90;;;;;;10138076;28;20093;-59
2022/06/29 04:23:02;;;;;;;2.22;1.90;;;21.00;99.90;;;;;;10137759;28;20036;-58
2022/06/29 04:27:52;;;;;;;1.90;1.52;;;21.00;99.90;;;;;;10127134;28;20031;-58
2022/06/29 04:32:43;;;;;;;6.13;2.10;;;21.00;99.90;;;;;;10135556;28;20112;-58
2022/06/29 04:37:34;;;;;;;3.72;1.92;;;21.10;99.90;;;;;;10136727;28;20222;-58
2022/06/29 04:42:25;;;;;;;4.03;1.92;;;21.20;99.90;;;;;;10136107;28;20586;-59
2022/06/29 04:47:16;;;;;;;3.50;3.05;;;21.10;99.90;;;;;;10136964;28;20021;-57
2022/06/29 04:52:07;;;;;;;2.72;2.17;;;21.20;99.90;;;;;;10135928;28;20097;-58
2022/06/29 04:56:58;;;;;;;4.82;1.73;;;21.10;99.90;;;;;;10135971;28;20029;-58
2022/06/29 05:01:48;;;;;;;2.60;1.90;;;21.30;99.90;;;;;;10117435;28;20036;-58
2022/06/29 05:06:39;;;;;;;3.92;1.70;;;21.50;99.90;;;;;;10129085;28;20070;-59
2022/06/29 05:11:29;;;;;;;1.92;1.70;;;21.60;99.90;;;;;;10120108;28;20352;-58
2022/06/29 05:16:20;;;;;;;5.15;1.95;;;21.70;99.90;;;;;;10135406;28;20111;-58
2022/06/29 05:21:11;;;;;;;3.80;2.00;;;21.80;99.90;;;;;;10128847;28;20076;-58
2022/06/29 05:26:02;;;;;;;2.92;1.45;;;21.80;99.90;;;;;;10136813;28;20138;-58
2022/06/29 05:30:53;;;;;;;3.75;2.05;;;21.90;99.90;;;;;;10125892;28;20593;-59
2022/06/29 05:35:43;;;;;;;3.38;1.70;;;21.80;99.90;;;;;;10116821;28;20043;-59
2022/06/29 05:40:35;;;;;;;3.85;1.75;;;22.00;99.90;;;;;;10134812;28;20438;-59
2022/06/29 05:45:26;;;;;;;3.80;1.58;;;22.20;99.90;;;;;;10134394;28;20361;-59
2022/06/29 05:50:17;;;;;;;3.75;1.77;;;22.20;99.90;;;;;;10135202;28;20308;-58
2022/06/29 05:55:08;;;;;;;2.47;1.90;;;22.40;99.90;;;;;;10133595;28;20308;-58
2022/06/29 06:00:00;;;;;;;2.13;1.67;;;22.40;99.80;;;;;;10134159;28;20120;-58
2022/06/29 06:04:50;;;;;;;2.33;2.00;;;22.40;99.80;;;;;;10133903;28;20039;-57
2022/06/29 06:09:41;;;;;;;3.20;1.77;;;22.70;99.50;;;;;;10133492;28;20048;-59
2022/06/29 06:14:32;;;;;;;7.45;2.20;;;22.80;99.40;;;;;;10133140;28;20214;-59
2022/06/29 06:19:22;;;;;;;2.63;2.20;;;22.80;99.40;;;;;;10133997;28;20029;-58
2022/06/29 06:24:13;;;;;;;3.92;1.77;;;22.70;99.40;;;;;;10132560;28;20063;-58
2022/06/29 06:29:04;;;;;;;3.20;1.77;;;22.60;99.50;;;;;;10124471;28;20036;-59
2022/06/29 06:33:54;;;;;;;5.65;2.05;;;22.60;99.50;;;;;;10132385;28;20028;-58
2022/06/29 06:38:45;;;;;;;4.78;1.80;;;22.70;99.30;;;;;;10133284;28;20024;-58
2022/06/29 06:43:35;;;;;;;4.40;1.95;;;22.70;99.30;;;;;;10132611;28;20072;-59
2022/06/29 06:48:26;;;;;;;2.75;2.25;;;22.90;99.10;;;;;;10114308;28;20162;-59
2022/06/29 06:53:17;;;;;;;3.63;2.33;;;23.10;99.00;;;;;;10132728;28;20066;-60
2022/06/29 06:58:08;;;;;;;4.43;1.92;;;23.20;98.90;;;;;;10132496;28;20077;-60
2022/06/29 07:02:58;;;;;;;2.42;2.13;;;23.40;98.90;;;;;;10131764;28;20036;-58
2022/06/29 07:07:49;;;;;;;3.17;1.80;;;23.50;98.70;;;;;;10132093;28;20027;-62
2022/06/29 07:12:40;;;;;;;2.38;1.95;;;23.50;98.70;;;;;;10131546;28;20052;-57
2022/06/29 07:17:31;;;;;;;2.40;1.83;;;23.60;98.40;;;;;;10131365;28;20505;-58
2022/06/29 07:22:21;;;;;;;2.63;1.90;;;23.50;98.30;;;;;;10131057;28;20376;-60
2022/06/29 07:27:12;;;;;;;2.53;1.67;;;23.50;98.00;;;;;;10126651;28;20063;-59
2022/06/29 07:32:03;;;;;;;2.72;1.90;;;23.40;97.80;;;;;;10127569;28;20391;-57
2022/06/29 07:36:54;;;;;;;1.75;1.65;;;23.20;97.80;;;;;;10131967;28;20025;-59
2022/06/29 07:41:44;;;;;;;2.60;2.00;;;23.10;97.60;;;;;;10130129;28;20049;-59
2022/06/29 07:46:35;;;;;;;5.13;2.33;;;23.30;97.30;;;;;;10132175;28;20047;-59
2022/06/29 07:51:26;;;;;;;2.15;1.85;;;23.50;97.20;;;;;;10114054;28;20479;-58
2022/06/29 07:56:16;;;;;;;5.72;1.98;;;23.80;96.90;;;;;;10131439;28;20028;-58
2022/06/29 08:01:07;;;;;;;3.45;1.83;;;24.10;96.60;;;;;;10130829;28;20099;-59
2022/06/29 08:05:59;;;;;;;2.42;2.22;;;24.40;96.50;;;;;;10130652;28;20055;-59
2022/06/29 08:10:50;;;;;;;2.00;1.65;;;24.60;96.60;;;;;;10135331;28;20052;-58
2022/06/29 08:15:42;;;;;;;4.22;2.35;;;24.70;96.10;;;;;;10136854;28;20020;-59
2022/06/29 08:20:32;;;;;;;2.10;1.67;;;24.70;95.90;;;;;;10136948;28;20058;-58
2022/06/29 08:25:23;;;;;;;3.53;2.20;;;24.80;95.80;;;;;;10137236;28;20508;-58
2022/06/29 08:30:14;;;;;;;2.17;1.98;;;24.70;95.80;;;;;;10126671;28;20220;-60
2022/06/29 08:35:05;;;;;;;3.40;2.33;;;24.70;95.80;;;;;;10136441;28;20036;-61
2022/06/29 08:39:56;;;;;;;3.88;2.55;;;24.80;95.70;;;;;;10138267;28;20033;-60
2022/06/29 08:44:49;;;;;;;3.25;2.10;;;25.00;95.40;;;;;;10136930;28;20029;-58
2022/06/29 08:49:39;;;;;;;3.10;2.22;;;25.10;95.30;;;;;;10137171;28;20432;-59
2022/06/29 08:54:31;;;;;;;5.07;2.80;;;25.20;95.10;;;;;;10136108;28;20043;-59
2022/06/29 08:59:22;;;;;;;4.78;2.10;;;25.30;95.10;;;;;;10135825;28;20685;-58
2022/06/29 09:04:13;;;;;;;2.50;2.03;;;25.80;94.70;;;;;;10135035;28;20542;-59
2022/06/29 09:09:04;;;;;;;2.95;2.45;;;25.90;94.50;;;;;;10135289;28;20569;-60
2022/06/29 09:14:15;;;;;;;4.20;2.25;;;26.00;94.40;;;;;;10135182;28;20467;-59
2022/06/29 09:19:05;;;;;;;3.42;2.08;;;26.40;93.90;;;;;;10136106;28;20025;-61
2022/06/29 09:23:56;;;;;;;5.13;1.77;;;26.50;93.90;;;;;;10134702;28;20143;-58
2022/06/29 09:28:47;;;;;;;5.60;2.90;;;26.40;94.00;;;;;;10124866;28;20099;-58
2022/06/29 09:33:37;;;;;;;5.25;2.47;;;26.40;94.00;;;;;;10133930;28;20974;-59
2022/06/29 09:38:28;;;;;;;6.70;3.47;;;26.50;93.90;;;;;;10134789;28;20029;-57
2022/06/29 09:43:18;;;;;;;4.18;2.00;;;26.20;93.80;;;;;;10134318;28;20028;-59
2022/06/29 09:48:09;;;;;;;4.85;2.15;;;26.50;93.60;;;;;;10134894;28;20126;-58
2022/06/29 09:53:00;;;;;;;6.65;1.90;;;26.70;93.30;;;;;;10134364;28;20110;-59
2022/06/29 09:57:54;;;;;;;3.67;2.10;;;26.80;93.20;;;;;;10134233;28;20021;-58
2022/06/29 10:02:45;;;;;;;;;;;26.90;92.90;;;;;;10133843;28;20128;-59
2022/06/29 10:07:38;;;;;;;2.60;1.92;;;26.90;92.70;;;;;;10134660;28;19916;-60
2022/06/29 10:18:03;;;;;;;5.68;1.98;;;27.10;92.40;;;;;;10126152;28;20092;-59
2022/06/29 10:22:53;;;;;;;2.47;2.03;;;27.10;92.20;;;;;;10132687;28;20045;-62
2022/06/29 10:28:16;;;;;;;2.40;2.00;;;27.20;92.10;;;;;;10132127;28;20357;-59
2022/06/29 10:33:29;;;;;;;2.70;1.75;;;27.30;91.80;;;;;;10132065;28;20024;-61
2022/06/29 10:38:19;;;;;;;2.85;2.13;;;27.60;91.60;;;;;;10133235;28;20182;-60
2022/06/29 10:43:20;;;;;;;2.33;2.00;;;28.00;91.50;;;;;;10132519;28;20287;-59
2022/06/29 10:48:13;;;;;;;3.72;1.85;;;27.90;91.30;;;;;;10132650;28;20452;-62
2022/06/29 10:53:10;;;;;;;2.30;2.00;;;27.80;91.20;;;;;;10132066;28;20056;-61
2022/06/29 10:58:02;;;;;;;1.80;1.70;;;27.70;91.10;;;;;;10132919;28;20037;-60
2022/06/29 11:02:53;;;;;;;4.82;3.15;;;27.90;91.00;;;;;;10131672;28;20056;-61
2022/06/29 11:12:56;;;;;;;3.58;1.90;;;28.20;90.50;;;;;;10131734;28;20117;-61
2022/06/29 11:17:47;;;;;;;2.92;1.80;;;28.00;90.50;;;;;;10132492;28;20035;-61
2022/06/29 11:22:51;;;;;;;3.58;2.17;;;28.00;90.50;;;;;;10131751;28;20438;-61
2022/06/29 11:27:42;;;;;;;4.93;2.13;;;28.10;90.20;;;;;;10130526;28;20033;-59
2022/06/29 11:32:43;;;;;;;2.80;2.10;;;27.70;90.30;;;;;;10132996;28;20445;-59
2022/06/29 11:37:34;;;;;;;2.03;1.55;;;27.40;90.40;;;;;;10121919;28;20024;-61
2022/06/29 11:47:52;;;;;;;1.75;1.65;;;27.60;90.10;;;;;;10140692;28;20053;-61
2022/06/29 11:52:45;;;;;;;2.03;1.67;;;27.50;90.00;;;;;;10122878;28;20044;-61
2022/06/29 11:57:36;;;;;;;2.30;1.87;;;27.40;90.00;;;;;;10137233;28;20518;-63
2022/06/29 12:02:34;;;;;;;4.65;2.22;;;27.50;90.00;;;;;;10136371;28;20400;-61
2022/06/29 12:07:24;;;;;;;1.92;1.50;;;27.70;89.30;;;;;;10137182;28;20037;-61
2022/06/29 12:12:15;;;;;;;3.22;1.80;;;27.70;89.20;;;;;;10138065;28;20094;-60
2022/06/29 12:17:07;;;;;;;2.65;1.90;;;28.10;88.50;;;;;;10138088;28;20180;-59
2022/06/29 12:21:58;;;;;;;3.72;3.03;;;28.10;88.50;;;;;;10133851;28;20040;-61
2022/06/29 12:26:49;;;;;;;4.47;1.90;;;28.60;88.50;;;;;;10136815;28;20036;-61
2022/06/29 12:31:41;;;;;;;3.78;1.70;;;29.10;88.00;;;;;;10111755;28;20526;-61
2022/06/29 12:36:32;;;;;;;2.83;1.80;;;29.40;87.80;;;;;;10137952;28;20520;-60
2022/06/29 12:41:24;;;;;;;3.17;2.08;;;29.80;87.70;;;;;;10137907;28;20037;-59
2022/06/29 12:46:14;;;;;;;2.60;2.22;;;30.30;87.20;;;;;;10137971;28;20108;-59
2022/06/29 12:51:06;;;;;;;2.63;1.98;;;30.10;85.80;;;;;;10121597;28;20453;-60
2022/06/29 12:55:57;;;;;;;3.20;2.33;;;30.70;85.20;;;;;;10135232;28;20435;-61
2022/06/29 13:00:48;;;;;;;1.92;1.77;;;32.20;83.40;;;;;;10136089;28;20542;-59
2022/06/29 13:05:38;;;;;;;2.80;1.88;;;32.90;81.50;;;;;;10136158;28;20020;-59
2022/06/29 13:10:31;;;;;;;3.50;1.90;;;33.40;79.60;;;;;;10136101;28;20045;-59
2022/06/29 13:15:21;;;;;;;3.47;1.95;;;34.00;76.40;;;;;;10136270;28;20056;-61
2022/06/29 13:20:12;;;;;;;3.10;1.70;;;34.70;74.80;;;;;;10135559;28;20040;-59
2022/06/29 13:25:03;;;;;;;3.95;1.90;;;32.90;74.30;;;;;;10136219;28;20052;-61
2022/06/29 13:29:54;;;;;;;3.53;2.20;;;32.00;74.20;;;;;;10126216;28;20039;-60
2022/06/29 13:34:45;;;;;;;3.88;1.80;;;31.00;74.80;;;;;;10135622;28;20136;-59
2022/06/29 13:39:35;;;;;;;4.45;1.90;;;30.60;74.70;;;;;;10135164;28;20040;-62
2022/06/29 13:44:27;;;;;;;5.43;2.30;;;32.80;72.50;;;;;;10134436;28;20448;-60
2022/06/29 13:49:18;;;;;;;3.80;1.88;;;36.00;68.80;;;;;;10135130;28;20147;-59
2022/06/29 13:54:08;;;;;;;;;;;37.80;65.60;;;;;;10134488;28;20099;-59
2022/06/29 13:58:59;;;;;;;2.00;1.40;;;38.00;63.20;;;;;;10132791;28;20748;-58
2022/06/29 14:03:50;;;;;;;3.17;1.87;;;35.60;65.30;;;;;;10134211;28;20032;-60
2022/06/29 14:08:41;;;;;;;2.75;2.30;;;33.10;67.60;;;;;;10134780;28;20044;-61
2022/06/29 14:13:32;;;;;;;5.18;2.05;;;31.70;68.30;;;;;;10134007;28;20036;-58
2022/06/29 14:18:23;;;;;;;2.72;2.50;;;30.90;68.50;;;;;;10134008;28;20029;-61
2022/06/29 14:23:14;;;;;;;4.47;2.60;;;30.80;68.20;;;;;;10133170;28;20028;-59
2022/06/29 14:28:05;;;;;;;3.58;2.92;;;31.00;67.80;;;;;;10123124;28;20411;-59
2022/06/29 14:32:55;;;;;;;2.20;2.00;;;32.80;66.50;;;;;;10132854;28;20032;-61
2022/06/29 14:37:46;;;;;;;4.97;2.70;;;35.50;63.20;;;;;;10132803;28;20040;-58
2022/06/29 14:42:37;;;;;;;5.03;2.08;;;37.00;61.10;;;;;;10132738;28;20040;-61
2022/06/29 14:47:28;;;;;;;3.05;2.30;;;37.00;60.30;;;;;;10133837;28;20030;-62
2022/06/29 14:52:19;;;;;;;4.00;2.10;;;37.90;59.00;;;;;;10114458;28;20025;-61
2022/06/29 14:57:09;;;;;;;2.45;2.25;;;38.80;57.30;;;;;;10133143;28;20371;-59
2022/06/29 15:02:00;;;;;;;5.00;2.22;;;39.50;56.00;;;;;;10132169;28;20040;-60
2022/06/29 15:06:51;;;;;;;;;;;36.90;57.10;;;;;;10133026;28;20101;-62
2022/06/29 15:11:42;;;;;;;5.73;2.50;;;37.60;56.10;;;;;;10089840;28;20094;-60
2022/06/29 15:16:32;;;;;;;3.67;2.40;;;39.00;55.30;;;;;;10092734;28;20275;-62
2022/06/29 15:21:24;;;;;;;2.13;1.73;;;38.90;54.40;;;;;;10099997;28;20466;-60
2022/06/29 15:26:15;;;;;;;2.78;2.55;;;39.00;53.60;;;;;;10099263;28;20484;-57
2022/06/29 15:31:05;;;;;;;2.33;2.13;;;37.10;54.80;;;;;;10089545;28;20267;-60
2022/06/29 15:41:05;;;;;;;5.13;2.45;;;38.70;52.20;;;;;;10098950;28;20110;-60
2022/06/29 15:45:56;;;;;;;4.55;2.35;;;39.50;51.10;;;;;;10101108;28;20081;-60
2022/06/29 15:50:47;;;;;;;3.85;2.00;;;39.80;50.40;;;;;;10099492;28;20021;-63
2022/06/29 15:55:37;;;;;;;3.28;2.15;;;39.50;50.00;;;;;;10099308;28;20025;-62
2022/06/29 16:00:30;;;;;;;2.55;2.35;;;38.60;50.10;;;;;;10098179;28;20558;-59
2022/06/29 16:05:20;;;;;;;6.13;4.93;;;36.50;51.30;;;;;;10097757;28;20031;-61
2022/06/29 16:10:11;;;;;;;6.03;3.33;;;34.90;52.50;;;;;;10114411;28;20178;-62
2022/06/29 16:15:03;;;;;;;5.45;2.90;;;33.50;53.30;;;;;;10138093;28;20028;-61
2022/06/29 16:19:54;;;;;;;5.00;2.45;;;32.90;53.40;;;;;;10137364;28;20012;-61
2022/06/29 16:24:45;;;;;;;3.03;2.58;;;32.30;53.90;;;;;;10137019;28;20418;-61
2022/06/29 16:29:36;;;;;;;5.13;2.78;;;32.00;54.20;;;;;;10125939;28;20282;-60
2022/06/29 16:34:27;;;;;;;6.82;4.30;;;32.40;54.10;;;;;;10137211;28;20121;-60
2022/06/29 16:39:18;;;;;;;5.68;4.75;;;31.90;54.80;;;;;;10119373;28;20486;-61
2022/06/29 16:44:09;;;;;;;5.88;3.50;;;31.70;55.30;;;;;;10136043;28;20183;-60
2022/06/29 16:49:00;;;;;;;5.53;3.28;;;31.80;55.10;;;;;;10119658;28;20194;-61
2022/06/29 16:53:50;;;;;;;5.75;3.67;;;31.60;55.50;;;;;;10136467;28;20321;-59
2022/06/29 16:58:41;;;;;;;5.07;2.80;;;33.40;54.70;;;;;;10136127;28;20170;-59
2022/06/29 17:03:32;;;;;;;2.88;2.17;;;35.90;52.50;;;;;;10136509;28;20032;-60
2022/06/29 17:08:23;;;;;;;3.27;2.40;;;39.10;49.80;;;;;;10136413;28;20110;-62
2022/06/29 17:13:13;;;;;;;2.50;2.15;;;37.00;50.90;;;;;;10117749;28;20036;-62
2022/06/29 17:18:05;;;;;;;4.20;2.47;;;35.00;53.50;;;;;;10136544;28;20021;-62
2022/06/29 17:22:56;;;;;;;2.97;2.28;;;33.50;54.20;;;;;;10134851;28;20406;-61
2022/06/29 17:27:47;;;;;;;5.13;2.92;;;34.40;53.60;;;;;;10127084;28;20075;-62
2022/06/29 17:32:37;;;;;;;4.00;2.08;;;38.50;49.30;;;;;;10135084;28;20086;-61
2022/06/29 17:37:28;;;;;;;3.25;2.17;;;36.90;50.10;;;;;;10117215;28;20325;-60
2022/06/29 17:42:19;;;;;;;4.45;2.47;;;36.80;50.70;;;;;;10134484;28;20410;-60
2022/06/29 17:47:10;;;;;;;2.57;1.80;;;38.30;49.60;;;;;;10136271;28;20023;-59
2022/06/29 17:52:03;;;;;;;4.03;2.70;;;38.70;48.90;;;;;;10134325;28;20283;-63
2022/06/29 17:56:53;;;;;;;3.15;2.20;;;38.50;48.70;;;;;;10134755;28;20094;-61
2022/06/29 18:01:44;;;;;;;4.40;2.40;;;38.10;48.90;;;;;;10133503;28;20040;-60
2022/06/29 18:06:35;;;;;;;4.63;2.20;;;37.50;49.00;;;;;;10131410;28;20024;-60
2022/06/29 18:11:25;;;;;;;5.25;2.33;;;35.00;50.70;;;;;;10126334;28;20079;-65
2022/06/29 18:16:16;;;;;;;2.80;1.98;;;33.40;52.00;;;;;;10135454;28;20078;-63
2022/06/29 18:21:07;;;;;;;2.45;1.92;;;32.40;52.60;;;;;;10135367;28;20059;-59
2022/06/29 18:25:57;;;;;;;4.85;2.70;;;32.20;52.50;;;;;;10134130;28;20321;-60
2022/06/29 18:30:50;;;;;;;15.60;8.30;;;31.60;53.00;;;;;;10130125;28;20021;-61
2022/06/29 18:35:42;;;;;;;7.72;4.60;;;31.30;53.60;;;;;;10130576;28;20452;-60
2022/06/29 18:40:33;;;;;;;4.70;3.03;;;30.90;53.90;;;;;;10112724;28;20028;-60
2022/06/29 18:45:23;;;;;;;4.78;3.00;;;30.80;54.20;;;;;;10134077;28;20091;-59
2022/06/29 18:50:14;;;;;;;4.53;2.45;;;30.40;54.80;;;;;;10133662;28;20028;-60
2022/06/29 18:55:05;;;;;;;5.18;3.58;;;30.20;55.40;;;;;;10129887;28;20025;-61
2022/06/29 18:59:56;;;;;;;5.55;3.38;;;30.10;55.90;;;;;;10121951;28;20036;-63
2022/06/29 19:04:46;;;;;;;4.93;3.17;;;30.00;56.10;;;;;;10131420;28;20407;-62
2022/06/29 19:09:37;;;;;;;5.25;2.50;;;30.00;56.40;;;;;;10131095;28;20136;-62
2022/06/29 19:14:28;;;;;;;5.22;2.80;;;29.90;56.90;;;;;;10129761;28;20056;-62
2022/06/29 19:19:19;;;;;;;7.32;2.90;;;29.80;57.30;;;;;;10132262;28;20074;-60
2022/06/29 19:24:10;;;;;;;6.85;4.22;;;29.70;57.70;;;;;;10132257;28;20107;-61
2022/06/29 19:29:01;;;;;;;5.15;3.45;;;29.60;58.20;;;;;;10119349;28;20112;-62
2022/06/29 19:33:53;;;;;;;4.25;2.88;;;29.40;58.60;;;;;;10127462;28;20024;-59
2022/06/29 19:38:44;;;;;;;8.98;3.13;;;29.30;58.80;;;;;;10109453;28;20043;-60
2022/06/29 19:43:35;;;;;;;7.85;3.50;;;29.30;59.10;;;;;;10107459;28;20094;-59
2022/06/29 19:48:25;;;;;;;7.22;3.80;;;29.20;59.50;;;;;;10121499;28;20042;-61
2022/06/29 19:53:17;;;;;;;4.75;3.05;;;29.00;60.00;;;;;;10122612;28;20100;-66
2022/06/29 19:58:07;;;;;;;19.15;11.27;;;28.90;60.20;;;;;;10128440;28;20452;-59
2022/06/29 20:02:58;;;;;;;6.80;5.15;;;28.90;60.50;;;;;;10114445;28;20097;-59
2022/06/29 20:07:48;;;;;;;8.02;4.95;;;28.80;60.70;;;;;;10137847;28;20557;-59
2022/06/29 20:12:39;;;;;;;6.40;3.50;;;28.70;61.20;;;;;;10139482;28;20094;-62
2022/06/29 20:17:30;;;;;;;5.30;3.97;;;28.60;61.50;;;;;;10141437;28;20106;-61
2022/06/29 20:22:20;;;;;;;6.43;3.50;;;28.50;61.60;;;;;;10138488;28;20040;-61
2022/06/29 20:27:11;;;;;;;4.38;3.42;;;28.50;61.90;;;;;;10135289;28;20027;-61
2022/06/29 20:32:02;;;;;;;7.32;3.83;;;28.40;62.00;;;;;;10132732;28;20040;-60
2022/06/29 20:36:54;;;;;;;6.10;3.63;;;28.40;62.30;;;;;;10139187;28;20075;-61
2022/06/29 20:41:44;;;;;;;7.80;3.90;;;28.30;62.60;;;;;;10136874;28;20510;-61
2022/06/29 20:46:36;;;;;;;7.57;3.75;;;28.40;62.90;;;;;;10139660;28;20028;-62
2022/06/29 20:51:27;;;;;;;8.20;3.85;;;28.30;63.10;;;;;;10135412;28;20039;-59
2022/06/29 20:56:17;;;;;;;4.55;3.70;;;28.20;63.60;;;;;;10131585;28;20123;-67
2022/06/29 21:01:08;;;;;;;8.75;3.83;;;28.10;63.90;;;;;;10134075;28;20632;-66
2022/06/29 21:05:59;;;;;;;4.40;3.50;;;28.00;64.10;;;;;;10128465;28;20546;-63
2022/06/29 21:10:50;;;;;;;4.53;3.30;;;28.00;64.20;;;;;;10135271;28;20036;-61
2022/06/29 21:15:41;;;;;;;5.57;3.45;;;28.00;64.40;;;;;;10134971;28;20112;-61
2022/06/29 21:20:31;;;;;;;4.03;3.55;;;27.80;64.90;;;;;;10135404;28;20041;-62
2022/06/29 21:25:22;;;;;;;4.93;4.10;;;27.60;65.30;;;;;;10135105;28;20054;-61
2022/06/29 21:30:13;;;;;;;7.00;3.75;;;27.60;65.40;;;;;;10125480;28;20024;-62
2022/06/29 21:35:04;;;;;;;7.60;3.38;;;27.60;65.80;;;;;;10135166;28;20035;-63
2022/06/29 21:39:55;;;;;;;4.68;3.38;;;27.40;66.00;;;;;;10134792;28;20075;-62
2022/06/29 21:44:46;;;;;;;7.15;3.72;;;27.40;66.60;;;;;;10135344;28;20036;-62
2022/06/29 21:54:46;;;;;;;7.60;3.88;;;27.30;67.30;;;;;;10135400;28;20078;-61
2022/06/29 21:59:37;;;;;;;5.47;3.67;;;27.20;67.70;;;;;;10133880;28;20021;-61
2022/06/29 22:04:28;;;;;;;6.38;3.80;;;27.10;68.20;;;;;;10133822;28;20359;-61
2022/06/29 22:09:18;;;;;;;4.13;3.58;;;27.00;68.60;;;;;;10134323;28;20045;-61
2022/06/29 22:14:09;;;;;;;5.22;4.25;;;27.00;68.80;;;;;;10135010;28;20024;-61
2022/06/29 22:19:00;;;;;;;10.68;4.75;;;26.90;69.40;;;;;;10136501;28;20105;-60
2022/06/29 22:23:50;;;;;;;6.93;4.68;;;26.80;69.80;;;;;;10114476;28;20040;-61
2022/06/29 22:28:41;;;;;;;6.78;4.43;;;26.60;70.50;;;;;;10127644;28;20024;-61
2022/06/29 22:33:32;;;;;;;4.55;3.75;;;26.60;70.80;;;;;;10132580;28;20055;-62
2022/06/29 22:38:23;;;;;;;7.05;4.30;;;26.50;71.40;;;;;;10132839;28;20108;-61
2022/06/29 22:43:14;;;;;;;7.05;4.68;;;26.50;71.70;;;;;;10132211;28;20036;-61
2022/06/29 22:48:04;;;;;;;6.20;4.35;;;26.30;72.40;;;;;;10132542;28;20567;-61
2022/06/29 22:52:55;;;;;;;5.68;4.18;;;26.30;72.80;;;;;;10132578;28;20136;-61
2022/06/29 22:57:47;;;;;;;7.68;4.75;;;26.10;73.60;;;;;;10132452;28;20441;-62
2022/06/29 23:02:38;;;;;;;9.40;4.68;;;26.20;74.10;;;;;;10131649;28;20113;-63
2022/06/29 23:07:28;;;;;;;5.05;3.83;;;26.10;74.60;;;;;;10131776;28;20017;-62
2022/06/29 23:12:31;;;;;;;8.27;4.55;;;26.00;75.20;;;;;;10131068;28;20415;-61
2022/06/29 23:17:22;;;;;;;7.85;4.22;;;25.90;75.90;;;;;;10131126;28;20402;-61
2022/06/29 23:22:12;;;;;;;5.82;4.32;;;25.80;76.50;;;;;;10131100;28;20036;-61
2022/06/29 23:27:03;;;;;;;8.52;5.13;;;25.50;77.50;;;;;;10128269;28;20029;-60
2022/06/29 23:31:54;;;;;;;7.75;4.90;;;25.60;78.10;;;;;;10124272;28;20021;-61
2022/06/29 23:36:44;;;;;;;5.88;4.25;;;25.70;78.40;;;;;;10131412;28;20020;-59
2022/06/29 23:41:35;;;;;;;6.60;3.80;;;25.80;79.10;;;;;;10138238;28;20095;-60
2022/06/29 23:46:27;;;;;;;3.50;3.20;;;25.70;79.60;;;;;;10139165;28;20021;-61
2022/06/29 23:51:18;;;;;;;5.88;3.45;;;25.40;80.40;;;;;;10138298;28;20484;-61
2022/06/29 23:56:09;;;;;;;4.88;3.50;;;25.30;81.40;;;;;;10138170;28;20032;-61
